sensor_id;sensor_type;location;lat;lon;timestamp;P1;durP1;ratioP1;P2;durP2;ratioP2
78027;SDS011;67235;45.638;11.714;2023-02-01T00:01:54;98.82;;;45.13;;
78027;SDS011;67235;45.638;11.714;2023-02-01T00:04:21;97.28;;;44.08;;
78027;SDS011;67235;45.638;11.714;2023-02-01T00:06:47;93.03;;;42.75;;
78027;SDS011;67235;45.638;11.714;2023-02-01T00:09:13;94.17;;;40.67;;
78027;SDS011;67235;45.638;11.714;2023-02-01T00:11:39;114.40;;;51.05;;
78027;SDS011;67235;45.638;11.714;2023-02-01T00:14:06;98.10;;;43.78;;
78027;SDS011;67235;45.638;11.714;2023-02-01T00:16:33;113.40;;;49.58;;
78027;SDS011;67235;45.638;11.714;2023-02-01T00:19:00;100.63;;;44.70;;
78027;SDS011;67235;45.638;11.714;2023-02-01T00:21:28;95.93;;;41.15;;
78027;SDS011;67235;45.638;11.714;2023-02-01T00:23:55;87.57;;;40.70;;
78027;SDS011;67235;45.638;11.714;2023-02-01T00:26:31;92.80;;;41.28;;
78027;SDS011;67235;45.638;11.714;2023-02-01T00:29:06;96.75;;;43.08;;
78027;SDS011;67235;45.638;11.714;2023-02-01T00:31:36;92.07;;;42.23;;
78027;SDS011;67235;45.638;11.714;2023-02-01T00:34:02;89.32;;;38.95;;
78027;SDS011;67235;45.638;11.714;2023-02-01T00:36:28;90.35;;;42.08;;
78027;SDS011;67235;45.638;11.714;2023-02-01T00:38:54;89.20;;;39.83;;
78027;SDS011;67235;45.638;11.714;2023-02-01T00:41:21;88.35;;;41.55;;
78027;SDS011;67235;45.638;11.714;2023-02-01T00:43:47;86.18;;;40.05;;
78027;SDS011;67235;45.638;11.714;2023-02-01T00:46:14;95.03;;;42.78;;
78027;SDS011;67235;45.638;11.714;2023-02-01T00:48:41;89.28;;;39.78;;
78027;SDS011;67235;45.638;11.714;2023-02-01T00:51:08;92.47;;;43.35;;
78027;SDS011;67235;45.638;11.714;2023-02-01T00:53:36;102.90;;;43.30;;
78027;SDS011;67235;45.638;11.714;2023-02-01T00:56:02;96.07;;;41.17;;
78027;SDS011;67235;45.638;11.714;2023-02-01T00:58:30;92.03;;;42.53;;
78027;SDS011;67235;45.638;11.714;2023-02-01T01:01:00;91.07;;;38.90;;
78027;SDS011;67235;45.638;11.714;2023-02-01T01:03:30;88.80;;;42.00;;
78027;SDS011;67235;45.638;11.714;2023-02-01T01:05:58;94.90;;;40.40;;
78027;SDS011;67235;45.638;11.714;2023-02-01T01:08:25;89.03;;;38.33;;
78027;SDS011;67235;45.638;11.714;2023-02-01T01:10:52;83.03;;;38.53;;
78027;SDS011;67235;45.638;11.714;2023-02-01T01:13:17;82.40;;;38.58;;
78027;SDS011;67235;45.638;11.714;2023-02-01T01:15:43;86.23;;;37.07;;
78027;SDS011;67235;45.638;11.714;2023-02-01T01:18:09;90.38;;;39.25;;
78027;SDS011;67235;45.638;11.714;2023-02-01T01:20:36;82.63;;;36.95;;
78027;SDS011;67235;45.638;11.714;2023-02-01T01:23:03;85.03;;;38.08;;
78027;SDS011;67235;45.638;11.714;2023-02-01T01:25:30;87.67;;;38.47;;
78027;SDS011;67235;45.638;11.714;2023-02-01T01:27:57;80.03;;;37.78;;
78027;SDS011;67235;45.638;11.714;2023-02-01T01:30:23;78.90;;;37.42;;
78027;SDS011;67235;45.638;11.714;2023-02-01T01:32:49;92.00;;;39.17;;
78027;SDS011;67235;45.638;11.714;2023-02-01T01:35:15;93.80;;;41.23;;
78027;SDS011;67235;45.638;11.714;2023-02-01T01:37:41;91.38;;;41.38;;
78027;SDS011;67235;45.638;11.714;2023-02-01T01:40:07;86.95;;;36.70;;
78027;SDS011;67235;45.638;11.714;2023-02-01T01:42:38;89.97;;;40.00;;
78027;SDS011;67235;45.638;11.714;2023-02-01T01:47:38;94.63;;;42.55;;
78027;SDS011;67235;45.638;11.714;2023-02-01T01:50:09;87.45;;;38.22;;
78027;SDS011;67235;45.638;11.714;2023-02-01T01:52:38;87.82;;;39.80;;
78027;SDS011;67235;45.638;11.714;2023-02-01T01:55:06;91.27;;;41.10;;
78027;SDS011;67235;45.638;11.714;2023-02-01T01:57:34;86.72;;;39.50;;
78027;SDS011;67235;45.638;11.714;2023-02-01T02:00:10;89.43;;;41.10;;
78027;SDS011;67235;45.638;11.714;2023-02-01T02:02:38;94.13;;;40.40;;
78027;SDS011;67235;45.638;11.714;2023-02-01T02:05:06;97.55;;;41.90;;
78027;SDS011;67235;45.638;11.714;2023-02-01T02:07:35;90.57;;;38.87;;
78027;SDS011;67235;45.638;11.714;2023-02-01T02:10:05;88.63;;;38.42;;
78027;SDS011;67235;45.638;11.714;2023-02-01T02:12:37;87.88;;;41.13;;
78027;SDS011;67235;45.638;11.714;2023-02-01T02:15:08;93.90;;;40.92;;
78027;SDS011;67235;45.638;11.714;2023-02-01T02:31:25;85.40;;;35.42;;
78027;SDS011;67235;45.638;11.714;2023-02-01T02:36:54;82.35;;;35.65;;
78027;SDS011;67235;45.638;11.714;2023-02-01T02:39:47;86.35;;;37.15;;
78027;SDS011;67235;45.638;11.714;2023-02-01T02:45:32;82.53;;;34.10;;
78027;SDS011;67235;45.638;11.714;2023-02-01T02:48:29;75.40;;;33.60;;
78027;SDS011;67235;45.638;11.714;2023-02-01T02:56:47;81.57;;;35.05;;
78027;SDS011;67235;45.638;11.714;2023-02-01T02:59:33;79.43;;;35.33;;
78027;SDS011;67235;45.638;11.714;2023-02-01T03:02:18;74.37;;;33.13;;
78027;SDS011;67235;45.638;11.714;2023-02-01T03:05:03;81.32;;;34.75;;
78027;SDS011;67235;45.638;11.714;2023-02-01T03:10:47;83.47;;;34.45;;
78027;SDS011;67235;45.638;11.714;2023-02-01T03:16:07;81.80;;;34.80;;
78027;SDS011;67235;45.638;11.714;2023-02-01T03:24:25;69.95;;;31.10;;
78027;SDS011;67235;45.638;11.714;2023-02-01T03:27:01;70.72;;;31.30;;
78027;SDS011;67235;45.638;11.714;2023-02-01T03:30:24;65.50;;;27.90;;
78027;SDS011;67235;45.638;11.714;2023-02-01T03:32:26;70.25;;;30.95;;
78027;SDS011;67235;45.638;11.714;2023-02-01T03:34:53;70.55;;;31.88;;
78027;SDS011;67235;45.638;11.714;2023-02-01T03:37:23;76.88;;;33.35;;
78027;SDS011;67235;45.638;11.714;2023-02-01T03:42:39;77.23;;;30.50;;
78027;SDS011;67235;45.638;11.714;2023-02-01T03:45:31;74.50;;;32.38;;
78027;SDS011;67235;45.638;11.714;2023-02-01T03:48:01;69.90;;;30.95;;
78027;SDS011;67235;45.638;11.714;2023-02-01T03:50:29;75.05;;;31.70;;
78027;SDS011;67235;45.638;11.714;2023-02-01T03:52:59;73.57;;;32.28;;
78027;SDS011;67235;45.638;11.714;2023-02-01T03:55:30;83.40;;;34.53;;
78027;SDS011;67235;45.638;11.714;2023-02-01T03:57:58;80.15;;;35.60;;
78027;SDS011;67235;45.638;11.714;2023-02-01T04:00:30;77.53;;;32.63;;
78027;SDS011;67235;45.638;11.714;2023-02-01T04:02:56;75.30;;;33.50;;
78027;SDS011;67235;45.638;11.714;2023-02-01T04:05:22;70.83;;;31.50;;
78027;SDS011;67235;45.638;11.714;2023-02-01T04:07:50;77.00;;;32.75;;
78027;SDS011;67235;45.638;11.714;2023-02-01T04:10:16;75.32;;;33.33;;
78027;SDS011;67235;45.638;11.714;2023-02-01T04:12:42;74.47;;;33.78;;
78027;SDS011;67235;45.638;11.714;2023-02-01T04:15:08;77.17;;;33.27;;
78027;SDS011;67235;45.638;11.714;2023-02-01T04:17:34;75.78;;;31.15;;
78027;SDS011;67235;45.638;11.714;2023-02-01T04:20:00;71.07;;;32.47;;
78027;SDS011;67235;45.638;11.714;2023-02-01T04:22:25;70.87;;;31.83;;
78027;SDS011;67235;45.638;11.714;2023-02-01T04:24:51;68.55;;;31.85;;
78027;SDS011;67235;45.638;11.714;2023-02-01T04:27:17;68.87;;;30.57;;
78027;SDS011;67235;45.638;11.714;2023-02-01T04:29:43;70.85;;;32.05;;
78027;SDS011;67235;45.638;11.714;2023-02-01T04:32:10;87.63;;;33.95;;
78027;SDS011;67235;45.638;11.714;2023-02-01T04:34:37;65.05;;;31.20;;
78027;SDS011;67235;45.638;11.714;2023-02-01T04:37:03;74.33;;;33.43;;
78027;SDS011;67235;45.638;11.714;2023-02-01T04:39:28;75.63;;;34.13;;
78027;SDS011;67235;45.638;11.714;2023-02-01T04:41:54;66.87;;;30.53;;
78027;SDS011;67235;45.638;11.714;2023-02-01T04:44:20;74.88;;;33.35;;
78027;SDS011;67235;45.638;11.714;2023-02-01T04:46:46;75.33;;;34.23;;
78027;SDS011;67235;45.638;11.714;2023-02-01T04:49:13;73.75;;;33.45;;
78027;SDS011;67235;45.638;11.714;2023-02-01T04:51:39;77.68;;;33.80;;
78027;SDS011;67235;45.638;11.714;2023-02-01T04:54:05;72.63;;;31.88;;
78027;SDS011;67235;45.638;11.714;2023-02-01T04:56:32;67.82;;;30.13;;
78027;SDS011;67235;45.638;11.714;2023-02-01T04:58:59;86.80;;;31.13;;
78027;SDS011;67235;45.638;11.714;2023-02-01T05:01:27;71.10;;;30.85;;
78027;SDS011;67235;45.638;11.714;2023-02-01T05:03:53;67.18;;;28.95;;
78027;SDS011;67235;45.638;11.714;2023-02-01T05:06:19;73.50;;;31.08;;
78027;SDS011;67235;45.638;11.714;2023-02-01T05:08:46;69.43;;;27.53;;
78027;SDS011;67235;45.638;11.714;2023-02-01T05:11:11;59.10;;;26.50;;
78027;SDS011;67235;45.638;11.714;2023-02-01T05:13:55;67.68;;;28.80;;
78027;SDS011;67235;45.638;11.714;2023-02-01T05:16:22;75.60;;;31.95;;
78027;SDS011;67235;45.638;11.714;2023-02-01T05:18:48;78.53;;;32.57;;
78027;SDS011;67235;45.638;11.714;2023-02-01T05:21:13;79.75;;;34.47;;
78027;SDS011;67235;45.638;11.714;2023-02-01T05:23:39;77.67;;;31.90;;
78027;SDS011;67235;45.638;11.714;2023-02-01T05:26:23;68.88;;;29.02;;
78027;SDS011;67235;45.638;11.714;2023-02-01T05:28:49;76.05;;;31.67;;
78027;SDS011;67235;45.638;11.714;2023-02-01T05:31:15;64.43;;;27.35;;
78027;SDS011;67235;45.638;11.714;2023-02-01T05:33:41;65.18;;;28.08;;
78027;SDS011;67235;45.638;11.714;2023-02-01T05:36:07;72.75;;;31.58;;
78027;SDS011;67235;45.638;11.714;2023-02-01T05:38:33;79.60;;;32.67;;
78027;SDS011;67235;45.638;11.714;2023-02-01T05:40:59;68.07;;;29.98;;
78027;SDS011;67235;45.638;11.714;2023-02-01T05:43:25;73.07;;;27.80;;
78027;SDS011;67235;45.638;11.714;2023-02-01T05:45:51;70.13;;;28.70;;
78027;SDS011;67235;45.638;11.714;2023-02-01T05:48:17;59.75;;;27.63;;
78027;SDS011;67235;45.638;11.714;2023-02-01T05:50:43;70.68;;;29.50;;
78027;SDS011;67235;45.638;11.714;2023-02-01T05:53:09;72.53;;;30.50;;
78027;SDS011;67235;45.638;11.714;2023-02-01T05:55:35;72.20;;;30.40;;
78027;SDS011;67235;45.638;11.714;2023-02-01T05:58:02;71.00;;;30.27;;
78027;SDS011;67235;45.638;11.714;2023-02-01T06:00:28;63.53;;;29.02;;
78027;SDS011;67235;45.638;11.714;2023-02-01T06:02:54;66.72;;;29.52;;
78027;SDS011;67235;45.638;11.714;2023-02-01T06:05:20;70.67;;;29.27;;
78027;SDS011;67235;45.638;11.714;2023-02-01T06:07:46;65.78;;;28.92;;
78027;SDS011;67235;45.638;11.714;2023-02-01T06:10:14;70.03;;;30.40;;
78027;SDS011;67235;45.638;11.714;2023-02-01T06:12:41;73.10;;;31.67;;
78027;SDS011;67235;45.638;11.714;2023-02-01T06:15:07;77.40;;;30.83;;
78027;SDS011;67235;45.638;11.714;2023-02-01T06:17:34;74.38;;;30.58;;
78027;SDS011;67235;45.638;11.714;2023-02-01T06:19:59;66.35;;;29.60;;
78027;SDS011;67235;45.638;11.714;2023-02-01T06:22:25;76.20;;;29.10;;
78027;SDS011;67235;45.638;11.714;2023-02-01T06:24:51;69.03;;;28.65;;
78027;SDS011;67235;45.638;11.714;2023-02-01T06:27:17;67.53;;;28.93;;
78027;SDS011;67235;45.638;11.714;2023-02-01T06:29:43;71.47;;;28.95;;
78027;SDS011;67235;45.638;11.714;2023-02-01T06:32:08;64.37;;;26.60;;
78027;SDS011;67235;45.638;11.714;2023-02-01T06:34:35;69.70;;;28.60;;
78027;SDS011;67235;45.638;11.714;2023-02-01T06:37:02;73.38;;;31.05;;
78027;SDS011;67235;45.638;11.714;2023-02-01T06:39:28;67.80;;;28.48;;
78027;SDS011;67235;45.638;11.714;2023-02-01T06:41:53;62.87;;;28.40;;
78027;SDS011;67235;45.638;11.714;2023-02-01T06:44:19;65.78;;;28.95;;
78027;SDS011;67235;45.638;11.714;2023-02-01T06:46:46;74.77;;;32.23;;
78027;SDS011;67235;45.638;11.714;2023-02-01T06:49:15;83.95;;;32.22;;
78027;SDS011;67235;45.638;11.714;2023-02-01T06:51:46;77.30;;;30.65;;
78027;SDS011;67235;45.638;11.714;2023-02-01T06:54:20;89.25;;;34.22;;
78027;SDS011;67235;45.638;11.714;2023-02-01T06:56:47;103.00;;;36.88;;
78027;SDS011;67235;45.638;11.714;2023-02-01T06:59:13;81.70;;;32.63;;
78027;SDS011;67235;45.638;11.714;2023-02-01T07:01:40;88.95;;;32.50;;
78027;SDS011;67235;45.638;11.714;2023-02-01T07:04:06;84.22;;;34.63;;
78027;SDS011;67235;45.638;11.714;2023-02-01T07:06:34;83.07;;;36.28;;
78027;SDS011;67235;45.638;11.714;2023-02-01T07:09:01;76.70;;;33.40;;
78027;SDS011;67235;45.638;11.714;2023-02-01T07:11:26;79.10;;;33.08;;
78027;SDS011;67235;45.638;11.714;2023-02-01T07:13:53;84.80;;;34.97;;
78027;SDS011;67235;45.638;11.714;2023-02-01T07:16:19;98.43;;;35.97;;
78027;SDS011;67235;45.638;11.714;2023-02-01T07:18:46;81.87;;;33.77;;
78027;SDS011;67235;45.638;11.714;2023-02-01T07:21:12;86.63;;;35.70;;
78027;SDS011;67235;45.638;11.714;2023-02-01T07:23:38;88.13;;;34.92;;
78027;SDS011;67235;45.638;11.714;2023-02-01T07:26:05;88.65;;;35.40;;
78027;SDS011;67235;45.638;11.714;2023-02-01T07:28:33;76.82;;;32.70;;
78027;SDS011;67235;45.638;11.714;2023-02-01T07:31:04;90.10;;;35.57;;
78027;SDS011;67235;45.638;11.714;2023-02-01T07:33:31;89.05;;;35.00;;
78027;SDS011;67235;45.638;11.714;2023-02-01T07:35:57;78.68;;;35.78;;
78027;SDS011;67235;45.638;11.714;2023-02-01T07:38:25;91.60;;;38.85;;
78027;SDS011;67235;45.638;11.714;2023-02-01T07:40:57;93.45;;;37.15;;
78027;SDS011;67235;45.638;11.714;2023-02-01T07:43:30;77.57;;;32.60;;
78027;SDS011;67235;45.638;11.714;2023-02-01T07:45:58;88.90;;;36.55;;
78027;SDS011;67235;45.638;11.714;2023-02-01T07:48:25;76.28;;;34.75;;
78027;SDS011;67235;45.638;11.714;2023-02-01T07:50:59;85.40;;;34.15;;
78027;SDS011;67235;45.638;11.714;2023-02-01T07:53:29;73.00;;;31.15;;
78027;SDS011;67235;45.638;11.714;2023-02-01T07:55:56;76.10;;;32.20;;
78027;SDS011;67235;45.638;11.714;2023-02-01T07:58:22;80.25;;;32.03;;
78027;SDS011;67235;45.638;11.714;2023-02-01T08:00:49;72.70;;;31.98;;
78027;SDS011;67235;45.638;11.714;2023-02-01T08:03:33;79.68;;;31.40;;
78027;SDS011;67235;45.638;11.714;2023-02-01T08:06:00;69.50;;;30.00;;
78027;SDS011;67235;45.638;11.714;2023-02-01T08:08:26;71.32;;;30.30;;
78027;SDS011;67235;45.638;11.714;2023-02-01T08:10:56;67.72;;;32.42;;
78027;SDS011;67235;45.638;11.714;2023-02-01T08:13:23;70.22;;;32.63;;
78027;SDS011;67235;45.638;11.714;2023-02-01T08:15:49;69.13;;;33.60;;
78027;SDS011;67235;45.638;11.714;2023-02-01T08:18:15;66.35;;;32.90;;
78027;SDS011;67235;45.638;11.714;2023-02-01T08:20:43;72.25;;;33.47;;
78027;SDS011;67235;45.638;11.714;2023-02-01T08:23:11;71.13;;;34.45;;
78027;SDS011;67235;45.638;11.714;2023-02-01T08:25:37;72.43;;;35.93;;
78027;SDS011;67235;45.638;11.714;2023-02-01T08:28:04;69.88;;;35.17;;
78027;SDS011;67235;45.638;11.714;2023-02-01T08:30:31;71.30;;;35.65;;
78027;SDS011;67235;45.638;11.714;2023-02-01T08:32:57;74.80;;;35.25;;
78027;SDS011;67235;45.638;11.714;2023-02-01T08:35:23;72.90;;;35.67;;
78027;SDS011;67235;45.638;11.714;2023-02-01T08:37:50;73.35;;;36.90;;
78027;SDS011;67235;45.638;11.714;2023-02-01T08:40:16;71.97;;;36.85;;
78027;SDS011;67235;45.638;11.714;2023-02-01T08:42:42;71.85;;;38.10;;
78027;SDS011;67235;45.638;11.714;2023-02-01T08:45:21;68.13;;;37.53;;
78027;SDS011;67235;45.638;11.714;2023-02-01T08:47:49;74.27;;;38.97;;
78027;SDS011;67235;45.638;11.714;2023-02-01T08:50:16;68.50;;;35.95;;
78027;SDS011;67235;45.638;11.714;2023-02-01T08:52:43;62.80;;;35.53;;
78027;SDS011;67235;45.638;11.714;2023-02-01T08:55:09;65.88;;;35.85;;
78027;SDS011;67235;45.638;11.714;2023-02-01T08:57:35;65.32;;;36.28;;
78027;SDS011;67235;45.638;11.714;2023-02-01T09:00:02;61.30;;;37.22;;
78027;SDS011;67235;45.638;11.714;2023-02-01T09:02:30;62.85;;;38.63;;
78027;SDS011;67235;45.638;11.714;2023-02-01T09:04:57;66.15;;;38.65;;
78027;SDS011;67235;45.638;11.714;2023-02-01T09:07:23;61.43;;;37.77;;
78027;SDS011;67235;45.638;11.714;2023-02-01T09:09:49;60.33;;;37.03;;
78027;SDS011;67235;45.638;11.714;2023-02-01T09:12:16;60.05;;;37.35;;
78027;SDS011;67235;45.638;11.714;2023-02-01T09:14:42;60.05;;;34.90;;
78027;SDS011;67235;45.638;11.714;2023-02-01T09:17:08;57.28;;;35.33;;
78027;SDS011;67235;45.638;11.714;2023-02-01T09:19:34;56.97;;;35.70;;
78027;SDS011;67235;45.638;11.714;2023-02-01T09:22:01;57.17;;;35.35;;
78027;SDS011;67235;45.638;11.714;2023-02-01T09:24:28;57.17;;;36.33;;
78027;SDS011;67235;45.638;11.714;2023-02-01T09:26:54;57.40;;;35.70;;
78027;SDS011;67235;45.638;11.714;2023-02-01T09:29:20;55.30;;;34.92;;
78027;SDS011;67235;45.638;11.714;2023-02-01T09:31:46;52.72;;;34.78;;
78027;SDS011;67235;45.638;11.714;2023-02-01T09:34:12;59.73;;;36.33;;
78027;SDS011;67235;45.638;11.714;2023-02-01T09:36:38;56.63;;;36.27;;
78027;SDS011;67235;45.638;11.714;2023-02-01T09:39:03;52.85;;;35.05;;
78027;SDS011;67235;45.638;11.714;2023-02-01T09:47:11;59.63;;;35.47;;
78027;SDS011;67235;45.638;11.714;2023-02-01T09:49:41;58.20;;;37.63;;
78027;SDS011;67235;45.638;11.714;2023-02-01T09:52:27;55.50;;;35.63;;
78027;SDS011;67235;45.638;11.714;2023-02-01T09:55:10;54.95;;;37.25;;
78027;SDS011;67235;45.638;11.714;2023-02-01T09:57:50;56.93;;;36.10;;
78027;SDS011;67235;45.638;11.714;2023-02-01T10:00:30;57.97;;;37.17;;
78027;SDS011;67235;45.638;11.714;2023-02-01T10:03:00;60.47;;;38.35;;
78027;SDS011;67235;45.638;11.714;2023-02-01T10:08:31;56.83;;;38.45;;
78027;SDS011;67235;45.638;11.714;2023-02-01T10:14:29;62.35;;;39.83;;
78027;SDS011;67235;45.638;11.714;2023-02-01T10:19:39;59.25;;;39.55;;
78027;SDS011;67235;45.638;11.714;2023-02-01T10:25:13;59.33;;;40.60;;
78027;SDS011;67235;45.638;11.714;2023-02-01T10:27:45;59.88;;;40.65;;
78027;SDS011;67235;45.638;11.714;2023-02-01T10:30:21;62.08;;;40.55;;
78027;SDS011;67235;45.638;11.714;2023-02-01T10:32:49;60.35;;;40.97;;
78027;SDS011;67235;45.638;11.714;2023-02-01T10:35:26;56.63;;;39.55;;
78027;SDS011;67235;45.638;11.714;2023-02-01T10:37:59;55.83;;;38.73;;
78027;SDS011;67235;45.638;11.714;2023-02-01T10:40:27;56.22;;;38.35;;
78027;SDS011;67235;45.638;11.714;2023-02-01T10:42:54;58.70;;;39.63;;
78027;SDS011;67235;45.638;11.714;2023-02-01T10:45:25;57.60;;;39.35;;
78027;SDS011;67235;45.638;11.714;2023-02-01T10:47:53;54.20;;;38.22;;
78027;SDS011;67235;45.638;11.714;2023-02-01T10:53:08;57.53;;;39.17;;
78027;SDS011;67235;45.638;11.714;2023-02-01T10:56:08;57.60;;;39.75;;
78027;SDS011;67235;45.638;11.714;2023-02-01T10:58:36;58.85;;;39.00;;
78027;SDS011;67235;45.638;11.714;2023-02-01T11:01:14;57.38;;;39.30;;
78027;SDS011;67235;45.638;11.714;2023-02-01T11:03:56;56.13;;;37.40;;
78027;SDS011;67235;45.638;11.714;2023-02-01T11:06:29;57.45;;;38.05;;
78027;SDS011;67235;45.638;11.714;2023-02-01T11:08:56;57.13;;;37.53;;
78027;SDS011;67235;45.638;11.714;2023-02-01T11:11:24;56.13;;;37.53;;
78027;SDS011;67235;45.638;11.714;2023-02-01T11:13:53;59.10;;;38.35;;
78027;SDS011;67235;45.638;11.714;2023-02-01T11:16:28;60.70;;;37.23;;
78027;SDS011;67235;45.638;11.714;2023-02-01T11:19:01;59.22;;;37.95;;
78027;SDS011;67235;45.638;11.714;2023-02-01T11:21:28;60.30;;;38.10;;
78027;SDS011;67235;45.638;11.714;2023-02-01T11:23:54;56.05;;;33.53;;
78027;SDS011;67235;45.638;11.714;2023-02-01T11:26:26;61.55;;;38.47;;
78027;SDS011;67235;45.638;11.714;2023-02-01T11:29:09;64.53;;;37.73;;
78027;SDS011;67235;45.638;11.714;2023-02-01T11:31:38;58.50;;;36.63;;
78027;SDS011;67235;45.638;11.714;2023-02-01T11:34:40;61.45;;;37.83;;
78027;SDS011;67235;45.638;11.714;2023-02-01T11:37:01;61.00;;;38.53;;
78027;SDS011;67235;45.638;11.714;2023-02-01T11:39:33;61.60;;;37.15;;
78027;SDS011;67235;45.638;11.714;2023-02-01T11:42:12;58.07;;;36.63;;
78027;SDS011;67235;45.638;11.714;2023-02-01T11:44:41;60.20;;;35.25;;
78027;SDS011;67235;45.638;11.714;2023-02-01T11:47:22;60.15;;;36.67;;
78027;SDS011;67235;45.638;11.714;2023-02-01T11:49:53;59.95;;;36.80;;
78027;SDS011;67235;45.638;11.714;2023-02-01T12:06:21;63.43;;;34.97;;
78027;SDS011;67235;45.638;11.714;2023-02-01T12:12:08;63.35;;;35.92;;
78027;SDS011;67235;45.638;11.714;2023-02-01T12:33:34;67.25;;;36.58;;
78027;SDS011;67235;45.638;11.714;2023-02-01T12:47:21;66.00;;;36.00;;
78027;SDS011;67235;45.638;11.714;2023-02-01T12:52:39;68.05;;;35.35;;
78027;SDS011;67235;45.638;11.714;2023-02-01T12:57:43;63.17;;;34.78;;
78027;SDS011;67235;45.638;11.714;2023-02-01T13:00:27;69.47;;;35.97;;
78027;SDS011;67235;45.638;11.714;2023-02-01T13:03:33;70.22;;;35.63;;
78027;SDS011;67235;45.638;11.714;2023-02-01T13:06:02;66.85;;;35.45;;
78027;SDS011;67235;45.638;11.714;2023-02-01T13:11:16;67.93;;;34.10;;
78027;SDS011;67235;45.638;11.714;2023-02-01T13:17:03;65.03;;;33.20;;
78027;SDS011;67235;45.638;11.714;2023-02-01T13:19:59;64.60;;;33.28;;
78027;SDS011;67235;45.638;11.714;2023-02-01T13:22:32;64.03;;;31.83;;
78027;SDS011;67235;45.638;11.714;2023-02-01T13:27:38;71.18;;;33.83;;
78027;SDS011;67235;45.638;11.714;2023-02-01T13:30:06;69.50;;;35.45;;
78027;SDS011;67235;45.638;11.714;2023-02-01T13:32:53;67.05;;;32.13;;
78027;SDS011;67235;45.638;11.714;2023-02-01T13:38:00;69.88;;;33.53;;
78027;SDS011;67235;45.638;11.714;2023-02-01T13:43:38;67.03;;;33.95;;
78027;SDS011;67235;45.638;11.714;2023-02-01T13:46:07;68.03;;;33.83;;
78027;SDS011;67235;45.638;11.714;2023-02-01T13:56:52;71.93;;;34.25;;
78027;SDS011;67235;45.638;11.714;2023-02-01T14:05:11;69.85;;;34.90;;
78027;SDS011;67235;45.638;11.714;2023-02-01T14:23:48;73.55;;;35.50;;
78027;SDS011;67235;45.638;11.714;2023-02-01T14:26:40;74.55;;;34.78;;
78027;SDS011;67235;45.638;11.714;2023-02-01T14:55:53;79.77;;;37.90;;
78027;SDS011;67235;45.638;11.714;2023-02-01T15:01:15;82.35;;;36.78;;
78027;SDS011;67235;45.638;11.714;2023-02-01T15:06:24;82.50;;;38.05;;
78027;SDS011;67235;45.638;11.714;2023-02-01T15:08:54;82.47;;;39.27;;
78027;SDS011;67235;45.638;11.714;2023-02-01T15:11:32;79.82;;;37.15;;
78027;SDS011;67235;45.638;11.714;2023-02-01T15:14:21;78.65;;;36.10;;
78027;SDS011;67235;45.638;11.714;2023-02-01T15:16:48;80.53;;;36.63;;
78027;SDS011;67235;45.638;11.714;2023-02-01T15:19:19;85.45;;;38.80;;
78027;SDS011;67235;45.638;11.714;2023-02-01T15:21:48;86.83;;;39.03;;
78027;SDS011;67235;45.638;11.714;2023-02-01T15:24:22;89.45;;;39.95;;
78027;SDS011;67235;45.638;11.714;2023-02-01T15:26:53;87.55;;;39.58;;
78027;SDS011;67235;45.638;11.714;2023-02-01T15:29:21;88.18;;;40.45;;
78027;SDS011;67235;45.638;11.714;2023-02-01T15:31:54;89.57;;;40.47;;
78027;SDS011;67235;45.638;11.714;2023-02-01T15:34:20;84.97;;;39.40;;
78027;SDS011;67235;45.638;11.714;2023-02-01T15:36:47;91.57;;;41.15;;
78027;SDS011;67235;45.638;11.714;2023-02-01T15:39:18;88.82;;;41.13;;
78027;SDS011;67235;45.638;11.714;2023-02-01T15:42:09;87.35;;;39.83;;
78027;SDS011;67235;45.638;11.714;2023-02-01T15:44:41;87.75;;;39.90;;
78027;SDS011;67235;45.638;11.714;2023-02-01T15:47:17;83.03;;;37.37;;
78027;SDS011;67235;45.638;11.714;2023-02-01T15:49:50;92.05;;;39.15;;
78027;SDS011;67235;45.638;11.714;2023-02-01T15:52:24;87.20;;;38.30;;
78027;SDS011;67235;45.638;11.714;2023-02-01T15:55:02;91.75;;;37.80;;
78027;SDS011;67235;45.638;11.714;2023-02-01T15:57:35;86.50;;;39.55;;
78027;SDS011;67235;45.638;11.714;2023-02-01T16:00:06;103.57;;;41.33;;
78027;SDS011;67235;45.638;11.714;2023-02-01T16:02:53;87.22;;;38.78;;
78027;SDS011;67235;45.638;11.714;2023-02-01T16:05:35;87.82;;;38.83;;
78027;SDS011;67235;45.638;11.714;2023-02-01T16:10:39;90.25;;;39.22;;
78027;SDS011;67235;45.638;11.714;2023-02-01T16:13:08;88.07;;;38.30;;
78027;SDS011;67235;45.638;11.714;2023-02-01T16:15:34;90.72;;;38.15;;
78027;SDS011;67235;45.638;11.714;2023-02-01T16:18:00;75.50;;;34.20;;
78027;SDS011;67235;45.638;11.714;2023-02-01T16:20:27;78.15;;;34.25;;
78027;SDS011;67235;45.638;11.714;2023-02-01T16:22:54;83.33;;;37.27;;
78027;SDS011;67235;45.638;11.714;2023-02-01T16:25:20;88.80;;;40.33;;
78027;SDS011;67235;45.638;11.714;2023-02-01T16:27:46;86.95;;;39.05;;
78027;SDS011;67235;45.638;11.714;2023-02-01T16:30:13;98.30;;;42.75;;
78027;SDS011;67235;45.638;11.714;2023-02-01T16:32:39;92.83;;;40.00;;
78027;SDS011;67235;45.638;11.714;2023-02-01T16:35:10;93.55;;;40.72;;
78027;SDS011;67235;45.638;11.714;2023-02-01T16:37:44;93.45;;;41.08;;
78027;SDS011;67235;45.638;11.714;2023-02-01T16:40:12;86.43;;;37.22;;
78027;SDS011;67235;45.638;11.714;2023-02-01T16:42:39;94.30;;;40.07;;
78027;SDS011;67235;45.638;11.714;2023-02-01T16:45:06;83.43;;;37.03;;
78027;SDS011;67235;45.638;11.714;2023-02-01T16:47:33;83.80;;;37.13;;
78027;SDS011;67235;45.638;11.714;2023-02-01T16:50:01;96.43;;;40.13;;
78027;SDS011;67235;45.638;11.714;2023-02-01T16:52:27;101.72;;;43.05;;
78027;SDS011;67235;45.638;11.714;2023-02-01T16:54:54;100.20;;;42.23;;
78027;SDS011;67235;45.638;11.714;2023-02-01T16:57:20;98.90;;;41.90;;
78027;SDS011;67235;45.638;11.714;2023-02-01T16:59:50;90.28;;;38.50;;
78027;SDS011;67235;45.638;11.714;2023-02-01T17:02:17;88.80;;;36.33;;
78027;SDS011;67235;45.638;11.714;2023-02-01T17:04:44;92.95;;;36.42;;
78027;SDS011;67235;45.638;11.714;2023-02-01T17:07:14;95.88;;;39.05;;
78027;SDS011;67235;45.638;11.714;2023-02-01T17:09:42;94.80;;;40.15;;
78027;SDS011;67235;45.638;11.714;2023-02-01T17:12:15;88.82;;;37.97;;
78027;SDS011;67235;45.638;11.714;2023-02-01T17:14:54;81.30;;;36.97;;
78027;SDS011;67235;45.638;11.714;2023-02-01T17:17:22;87.25;;;36.55;;
78027;SDS011;67235;45.638;11.714;2023-02-01T17:19:51;93.75;;;37.13;;
78027;SDS011;67235;45.638;11.714;2023-02-01T17:22:19;81.47;;;35.08;;
78027;SDS011;67235;45.638;11.714;2023-02-01T17:24:45;93.68;;;35.83;;
78027;SDS011;67235;45.638;11.714;2023-02-01T17:27:12;78.77;;;32.90;;
78027;SDS011;67235;45.638;11.714;2023-02-01T17:29:39;88.88;;;35.35;;
78027;SDS011;67235;45.638;11.714;2023-02-01T17:32:06;75.25;;;31.98;;
78027;SDS011;67235;45.638;11.714;2023-02-01T17:34:40;77.63;;;31.92;;
78027;SDS011;67235;45.638;11.714;2023-02-01T17:37:08;78.00;;;32.97;;
78027;SDS011;67235;45.638;11.714;2023-02-01T17:39:45;82.07;;;32.35;;